sensor_id;sensor_type;location;lat;lon;timestamp;P1;durP1;ratioP1;P2;durP2;ratioP2
705;SDS011;21234;48.690;9.016;2023-02-15T00:00:11;24.60;;;16.90;;
705;SDS011;21234;48.690;9.016;2023-02-15T00:02:38;22.80;;;16.20;;
705;SDS011;21234;48.690;9.016;2023-02-15T00:05:06;24.50;;;16.00;;
705;SDS011;21234;48.690;9.016;2023-02-15T00:07:33;24.27;;;17.57;;
705;SDS011;21234;48.690;9.016;2023-02-15T00:10:00;25.20;;;16.50;;
705;SDS011;21234;48.690;9.016;2023-02-15T00:12:27;26.93;;;16.63;;
705;SDS011;21234;48.690;9.016;2023-02-15T00:14:53;24.47;;;17.33;;
705;SDS011;21234;48.690;9.016;2023-02-15T00:17:22;24.43;;;16.50;;
705;SDS011;21234;48.690;9.016;2023-02-15T00:19:48;21.93;;;15.00;;
705;SDS011;21234;48.690;9.016;2023-02-15T00:22:15;23.70;;;15.60;;
705;SDS011;21234;48.690;9.016;2023-02-15T00:24:42;25.93;;;16.80;;
705;SDS011;21234;48.690;9.016;2023-02-15T00:27:08;20.10;;;13.30;;
705;SDS011;21234;48.690;9.016;2023-02-15T00:29:35;26.50;;;15.90;;
705;SDS011;21234;48.690;9.016;2023-02-15T00:32:02;18.60;;;12.53;;
705;SDS011;21234;48.690;9.016;2023-02-15T00:34:30;22.20;;;13.80;;
705;SDS011;21234;48.690;9.016;2023-02-15T00:36:57;18.13;;;12.50;;
705;SDS011;21234;48.690;9.016;2023-02-15T00:39:24;25.67;;;13.87;;
705;SDS011;21234;48.690;9.016;2023-02-15T00:41:52;20.10;;;14.30;;
705;SDS011;21234;48.690;9.016;2023-02-15T00:44:18;21.13;;;14.23;;
705;SDS011;21234;48.690;9.016;2023-02-15T00:46:45;24.20;;;15.30;;
705;SDS011;21234;48.690;9.016;2023-02-15T00:49:12;19.97;;;13.57;;
705;SDS011;21234;48.690;9.016;2023-02-15T00:51:40;23.97;;;14.27;;
705;SDS011;21234;48.690;9.016;2023-02-15T00:54:07;20.17;;;14.10;;
705;SDS011;21234;48.690;9.016;2023-02-15T00:56:33;23.30;;;15.17;;
705;SDS011;21234;48.690;9.016;2023-02-15T00:59:00;21.13;;;13.40;;
705;SDS011;21234;48.690;9.016;2023-02-15T01:01:27;24.23;;;15.13;;
705;SDS011;21234;48.690;9.016;2023-02-15T01:03:54;22.10;;;15.90;;
705;SDS011;21234;48.690;9.016;2023-02-15T01:06:20;19.97;;;13.77;;
705;SDS011;21234;48.690;9.016;2023-02-15T01:08:49;25.30;;;14.20;;
705;SDS011;21234;48.690;9.016;2023-02-15T01:11:17;18.97;;;13.63;;
705;SDS011;21234;48.690;9.016;2023-02-15T01:13:48;20.47;;;13.87;;
705;SDS011;21234;48.690;9.016;2023-02-15T01:16:15;25.33;;;15.30;;
705;SDS011;21234;48.690;9.016;2023-02-15T01:18:42;23.70;;;14.00;;
705;SDS011;21234;48.690;9.016;2023-02-15T01:21:09;23.37;;;13.03;;
705;SDS011;21234;48.690;9.016;2023-02-15T01:23:39;18.33;;;14.70;;
705;SDS011;21234;48.690;9.016;2023-02-15T01:26:07;22.53;;;12.23;;
705;SDS011;21234;48.690;9.016;2023-02-15T01:28:34;19.37;;;13.73;;
705;SDS011;21234;48.690;9.016;2023-02-15T01:31:04;18.30;;;12.30;;
705;SDS011;21234;48.690;9.016;2023-02-15T01:33:32;21.30;;;14.27;;
705;SDS011;21234;48.690;9.016;2023-02-15T01:35:59;19.00;;;13.23;;
705;SDS011;21234;48.690;9.016;2023-02-15T01:38:25;23.83;;;13.63;;
705;SDS011;21234;48.690;9.016;2023-02-15T01:40:52;21.90;;;14.20;;
705;SDS011;21234;48.690;9.016;2023-02-15T01:43:42;18.80;;;11.93;;
705;SDS011;21234;48.690;9.016;2023-02-15T01:46:10;19.60;;;13.60;;
705;SDS011;21234;48.690;9.016;2023-02-15T01:48:39;20.20;;;14.50;;
705;SDS011;21234;48.690;9.016;2023-02-15T01:51:09;24.83;;;15.37;;
705;SDS011;21234;48.690;9.016;2023-02-15T01:53:38;19.60;;;14.03;;
705;SDS011;21234;48.690;9.016;2023-02-15T01:56:11;17.53;;;12.20;;
705;SDS011;21234;48.690;9.016;2023-02-15T01:58:42;19.80;;;13.80;;
705;SDS011;21234;48.690;9.016;2023-02-15T02:01:10;20.27;;;14.07;;
705;SDS011;21234;48.690;9.016;2023-02-15T02:03:38;17.07;;;13.43;;
705;SDS011;21234;48.690;9.016;2023-02-15T02:06:12;20.53;;;11.80;;
705;SDS011;21234;48.690;9.016;2023-02-15T02:08:39;25.00;;;14.37;;
705;SDS011;21234;48.690;9.016;2023-02-15T02:11:09;19.30;;;12.80;;
705;SDS011;21234;48.690;9.016;2023-02-15T02:13:37;21.43;;;14.20;;
705;SDS011;21234;48.690;9.016;2023-02-15T02:16:07;22.23;;;13.77;;
705;SDS011;21234;48.690;9.016;2023-02-15T02:18:41;25.67;;;14.53;;
705;SDS011;21234;48.690;9.016;2023-02-15T02:24:34;19.10;;;13.77;;
705;SDS011;21234;48.690;9.016;2023-02-15T02:27:29;20.73;;;12.60;;
705;SDS011;21234;48.690;9.016;2023-02-15T02:30:26;23.47;;;13.00;;
705;SDS011;21234;48.690;9.016;2023-02-15T02:33:21;18.57;;;13.40;;
705;SDS011;21234;48.690;9.016;2023-02-15T02:36:06;22.27;;;14.03;;
705;SDS011;21234;48.690;9.016;2023-02-15T02:38:42;21.23;;;12.07;;
705;SDS011;21234;48.690;9.016;2023-02-15T02:41:20;16.70;;;11.63;;
705;SDS011;21234;48.690;9.016;2023-02-15T02:43:58;19.83;;;12.97;;
705;SDS011;21234;48.690;9.016;2023-02-15T02:46:32;18.43;;;11.73;;
705;SDS011;21234;48.690;9.016;2023-02-15T02:49:04;18.13;;;12.50;;
705;SDS011;21234;48.690;9.016;2023-02-15T02:51:31;19.43;;;13.47;;
705;SDS011;21234;48.690;9.016;2023-02-15T02:53:58;26.20;;;14.47;;
705;SDS011;21234;48.690;9.016;2023-02-15T02:56:31;22.30;;;13.57;;
705;SDS011;21234;48.690;9.016;2023-02-15T02:59:04;23.63;;;16.27;;
705;SDS011;21234;48.690;9.016;2023-02-15T03:01:36;21.83;;;14.10;;
705;SDS011;21234;48.690;9.016;2023-02-15T03:04:09;18.80;;;12.40;;
705;SDS011;21234;48.690;9.016;2023-02-15T03:06:40;19.93;;;12.93;;
705;SDS011;21234;48.690;9.016;2023-02-15T03:09:14;20.23;;;13.30;;
705;SDS011;21234;48.690;9.016;2023-02-15T03:11:43;23.47;;;13.40;;
705;SDS011;21234;48.690;9.016;2023-02-15T03:14:12;16.03;;;13.13;;
705;SDS011;21234;48.690;9.016;2023-02-15T03:16:40;28.13;;;14.33;;
705;SDS011;21234;48.690;9.016;2023-02-15T03:19:12;22.07;;;13.47;;
705;SDS011;21234;48.690;9.016;2023-02-15T03:21:43;18.60;;;13.60;;
705;SDS011;21234;48.690;9.016;2023-02-15T03:24:15;21.13;;;12.47;;
705;SDS011;21234;48.690;9.016;2023-02-15T03:26:47;19.47;;;13.10;;
705;SDS011;21234;48.690;9.016;2023-02-15T03:29:16;18.97;;;12.37;;
705;SDS011;21234;48.690;9.016;2023-02-15T03:31:46;19.20;;;12.47;;
705;SDS011;21234;48.690;9.016;2023-02-15T03:34:18;22.27;;;13.43;;
705;SDS011;21234;48.690;9.016;2023-02-15T03:36:45;20.57;;;14.17;;
705;SDS011;21234;48.690;9.016;2023-02-15T03:39:19;20.90;;;13.47;;
705;SDS011;21234;48.690;9.016;2023-02-15T03:41:51;15.40;;;11.80;;
705;SDS011;21234;48.690;9.016;2023-02-15T03:44:24;20.17;;;13.33;;
705;SDS011;21234;48.690;9.016;2023-02-15T03:46:56;14.30;;;12.63;;
705;SDS011;21234;48.690;9.016;2023-02-15T03:49:31;19.17;;;13.70;;
705;SDS011;21234;48.690;9.016;2023-02-15T03:52:04;19.10;;;13.20;;
705;SDS011;21234;48.690;9.016;2023-02-15T03:54:34;17.90;;;12.90;;
705;SDS011;21234;48.690;9.016;2023-02-15T03:57:09;24.23;;;13.50;;
705;SDS011;21234;48.690;9.016;2023-02-15T03:59:55;24.10;;;13.27;;
705;SDS011;21234;48.690;9.016;2023-02-15T04:02:41;20.50;;;12.43;;
705;SDS011;21234;48.690;9.016;2023-02-15T04:05:16;19.80;;;13.43;;
705;SDS011;21234;48.690;9.016;2023-02-15T04:07:43;19.03;;;12.70;;
705;SDS011;21234;48.690;9.016;2023-02-15T04:10:10;20.37;;;12.60;;
705;SDS011;21234;48.690;9.016;2023-02-15T04:12:54;16.40;;;11.93;;
705;SDS011;21234;48.690;9.016;2023-02-15T04:15:20;21.50;;;12.80;;
705;SDS011;21234;48.690;9.016;2023-02-15T04:18:05;19.07;;;12.73;;
705;SDS011;21234;48.690;9.016;2023-02-15T04:20:33;15.93;;;11.67;;
705;SDS011;21234;48.690;9.016;2023-02-15T04:23:17;17.33;;;10.73;;
705;SDS011;21234;48.690;9.016;2023-02-15T04:26:02;20.27;;;13.50;;
705;SDS011;21234;48.690;9.016;2023-02-15T04:28:29;21.27;;;12.37;;
705;SDS011;21234;48.690;9.016;2023-02-15T04:30:56;19.70;;;12.77;;
705;SDS011;21234;48.690;9.016;2023-02-15T04:33:23;16.67;;;13.43;;
705;SDS011;21234;48.690;9.016;2023-02-15T04:35:51;15.73;;;12.50;;
705;SDS011;21234;48.690;9.016;2023-02-15T04:38:18;17.10;;;11.80;;
705;SDS011;21234;48.690;9.016;2023-02-15T04:40:48;17.37;;;12.30;;
705;SDS011;21234;48.690;9.016;2023-02-15T04:43:16;19.40;;;13.17;;
705;SDS011;21234;48.690;9.016;2023-02-15T04:45:46;17.43;;;12.63;;
705;SDS011;21234;48.690;9.016;2023-02-15T04:48:15;16.30;;;11.33;;
705;SDS011;21234;48.690;9.016;2023-02-15T04:50:41;19.20;;;12.00;;
705;SDS011;21234;48.690;9.016;2023-02-15T04:53:10;18.80;;;12.17;;
705;SDS011;21234;48.690;9.016;2023-02-15T04:55:37;18.17;;;12.80;;
705;SDS011;21234;48.690;9.016;2023-02-15T04:58:03;17.80;;;12.20;;
705;SDS011;21234;48.690;9.016;2023-02-15T05:00:30;18.13;;;12.93;;
705;SDS011;21234;48.690;9.016;2023-02-15T05:02:57;22.33;;;13.70;;
705;SDS011;21234;48.690;9.016;2023-02-15T05:05:23;22.93;;;13.57;;
705;SDS011;21234;48.690;9.016;2023-02-15T05:07:50;21.40;;;13.43;;
705;SDS011;21234;48.690;9.016;2023-02-15T05:10:18;28.37;;;14.17;;
705;SDS011;21234;48.690;9.016;2023-02-15T05:12:45;19.80;;;12.40;;
705;SDS011;21234;48.690;9.016;2023-02-15T05:15:12;20.40;;;12.13;;
705;SDS011;21234;48.690;9.016;2023-02-15T05:17:39;21.07;;;12.73;;
705;SDS011;21234;48.690;9.016;2023-02-15T05:20:06;20.60;;;13.50;;
705;SDS011;21234;48.690;9.016;2023-02-15T05:22:33;23.33;;;15.13;;
705;SDS011;21234;48.690;9.016;2023-02-15T05:25:00;20.00;;;12.40;;
705;SDS011;21234;48.690;9.016;2023-02-15T05:27:45;17.60;;;12.93;;
705;SDS011;21234;48.690;9.016;2023-02-15T05:30:29;20.60;;;12.90;;
705;SDS011;21234;48.690;9.016;2023-02-15T05:32:56;21.97;;;12.30;;
705;SDS011;21234;48.690;9.016;2023-02-15T05:35:23;23.80;;;14.80;;
705;SDS011;21234;48.690;9.016;2023-02-15T05:37:49;24.73;;;12.40;;
705;SDS011;21234;48.690;9.016;2023-02-15T05:40:16;19.13;;;12.60;;
705;SDS011;21234;48.690;9.016;2023-02-15T05:42:43;19.27;;;14.07;;
705;SDS011;21234;48.690;9.016;2023-02-15T05:45:11;18.70;;;12.70;;
705;SDS011;21234;48.690;9.016;2023-02-15T05:47:38;21.50;;;14.23;;
705;SDS011;21234;48.690;9.016;2023-02-15T05:50:05;12.43;;;10.37;;
705;SDS011;21234;48.690;9.016;2023-02-15T05:52:32;22.47;;;12.43;;
705;SDS011;21234;48.690;9.016;2023-02-15T05:54:59;15.70;;;10.60;;
705;SDS011;21234;48.690;9.016;2023-02-15T05:57:27;24.83;;;10.83;;
705;SDS011;21234;48.690;9.016;2023-02-15T05:59:54;18.73;;;12.20;;
705;SDS011;21234;48.690;9.016;2023-02-15T06:02:22;18.10;;;10.83;;
705;SDS011;21234;48.690;9.016;2023-02-15T06:04:49;17.97;;;13.17;;
705;SDS011;21234;48.690;9.016;2023-02-15T06:07:15;15.70;;;10.70;;
705;SDS011;21234;48.690;9.016;2023-02-15T06:09:42;18.47;;;11.43;;
705;SDS011;21234;48.690;9.016;2023-02-15T06:12:09;20.90;;;12.70;;
705;SDS011;21234;48.690;9.016;2023-02-15T06:14:35;16.67;;;11.60;;
705;SDS011;21234;48.690;9.016;2023-02-15T06:17:02;18.00;;;12.03;;
705;SDS011;21234;48.690;9.016;2023-02-15T06:19:30;21.13;;;11.43;;
705;SDS011;21234;48.690;9.016;2023-02-15T06:21:57;18.40;;;11.00;;
705;SDS011;21234;48.690;9.016;2023-02-15T06:24:23;19.10;;;12.10;;
705;SDS011;21234;48.690;9.016;2023-02-15T06:26:50;18.77;;;11.33;;
705;SDS011;21234;48.690;9.016;2023-02-15T06:29:17;32.23;;;19.97;;
705;SDS011;21234;48.690;9.016;2023-02-15T06:31:44;32.60;;;22.13;;
705;SDS011;21234;48.690;9.016;2023-02-15T06:34:10;29.07;;;18.70;;
705;SDS011;21234;48.690;9.016;2023-02-15T06:36:39;24.13;;;17.67;;
705;SDS011;21234;48.690;9.016;2023-02-15T06:39:06;23.30;;;13.37;;
705;SDS011;21234;48.690;9.016;2023-02-15T06:41:32;21.60;;;14.63;;
705;SDS011;21234;48.690;9.016;2023-02-15T06:43:59;19.87;;;13.10;;
705;SDS011;21234;48.690;9.016;2023-02-15T06:46:26;20.93;;;12.87;;
705;SDS011;21234;48.690;9.016;2023-02-15T06:48:53;17.10;;;11.30;;
705;SDS011;21234;48.690;9.016;2023-02-15T06:51:19;17.50;;;11.40;;
705;SDS011;21234;48.690;9.016;2023-02-15T06:53:47;17.77;;;12.00;;
705;SDS011;21234;48.690;9.016;2023-02-15T06:56:14;23.77;;;13.23;;
705;SDS011;21234;48.690;9.016;2023-02-15T06:58:41;17.30;;;12.97;;
705;SDS011;21234;48.690;9.016;2023-02-15T07:01:10;25.87;;;14.10;;
705;SDS011;21234;48.690;9.016;2023-02-15T07:03:37;19.63;;;13.83;;
705;SDS011;21234;48.690;9.016;2023-02-15T07:06:04;20.50;;;12.30;;
705;SDS011;21234;48.690;9.016;2023-02-15T07:08:33;21.70;;;11.83;;
705;SDS011;21234;48.690;9.016;2023-02-15T07:11:01;16.30;;;12.30;;
705;SDS011;21234;48.690;9.016;2023-02-15T07:13:42;19.40;;;13.60;;
705;SDS011;21234;48.690;9.016;2023-02-15T07:16:09;23.93;;;14.60;;
705;SDS011;21234;48.690;9.016;2023-02-15T07:18:37;23.07;;;15.27;;
705;SDS011;21234;48.690;9.016;2023-02-15T07:21:04;18.63;;;12.40;;
705;SDS011;21234;48.690;9.016;2023-02-15T07:23:33;17.20;;;10.80;;
705;SDS011;21234;48.690;9.016;2023-02-15T07:26:00;10.73;;;7.27;;
705;SDS011;21234;48.690;9.016;2023-02-15T07:28:28;12.07;;;8.67;;
705;SDS011;21234;48.690;9.016;2023-02-15T07:30:55;12.73;;;8.50;;
705;SDS011;21234;48.690;9.016;2023-02-15T07:33:23;12.83;;;8.97;;
705;SDS011;21234;48.690;9.016;2023-02-15T07:35:52;18.00;;;12.20;;
705;SDS011;21234;48.690;9.016;2023-02-15T07:38:20;17.73;;;13.23;;
705;SDS011;21234;48.690;9.016;2023-02-15T07:40:48;16.43;;;12.57;;
705;SDS011;21234;48.690;9.016;2023-02-15T07:43:16;16.70;;;12.87;;
705;SDS011;21234;48.690;9.016;2023-02-15T07:45:43;13.13;;;10.37;;
705;SDS011;21234;48.690;9.016;2023-02-15T07:48:09;17.33;;;11.17;;
705;SDS011;21234;48.690;9.016;2023-02-15T07:50:36;13.20;;;10.20;;
705;SDS011;21234;48.690;9.016;2023-02-15T07:53:03;15.00;;;10.20;;
705;SDS011;21234;48.690;9.016;2023-02-15T07:55:30;13.43;;;9.70;;
705;SDS011;21234;48.690;9.016;2023-02-15T07:57:57;16.53;;;10.63;;
705;SDS011;21234;48.690;9.016;2023-02-15T08:00:25;15.77;;;10.53;;
705;SDS011;21234;48.690;9.016;2023-02-15T08:02:52;18.13;;;12.43;;
705;SDS011;21234;48.690;9.016;2023-02-15T08:05:34;21.87;;;14.10;;
705;SDS011;21234;48.690;9.016;2023-02-15T08:08:01;19.30;;;13.17;;
705;SDS011;21234;48.690;9.016;2023-02-15T08:10:27;18.60;;;12.30;;
705;SDS011;21234;48.690;9.016;2023-02-15T08:13:08;18.77;;;12.43;;
705;SDS011;21234;48.690;9.016;2023-02-15T08:15:36;22.03;;;13.17;;
705;SDS011;21234;48.690;9.016;2023-02-15T08:18:02;19.00;;;12.67;;
705;SDS011;21234;48.690;9.016;2023-02-15T08:20:29;19.97;;;14.20;;
705;SDS011;21234;48.690;9.016;2023-02-15T08:22:56;16.33;;;12.27;;
705;SDS011;21234;48.690;9.016;2023-02-15T08:25:23;17.33;;;13.37;;
705;SDS011;21234;48.690;9.016;2023-02-15T08:27:50;16.73;;;10.67;;
705;SDS011;21234;48.690;9.016;2023-02-15T08:30:16;17.40;;;11.63;;
705;SDS011;21234;48.690;9.016;2023-02-15T08:32:44;14.17;;;10.40;;
705;SDS011;21234;48.690;9.016;2023-02-15T08:35:11;13.90;;;9.70;;
705;SDS011;21234;48.690;9.016;2023-02-15T08:37:38;15.67;;;11.60;;
705;SDS011;21234;48.690;9.016;2023-02-15T08:40:05;15.40;;;10.10;;
705;SDS011;21234;48.690;9.016;2023-02-15T08:42:32;13.60;;;8.33;;
705;SDS011;21234;48.690;9.016;2023-02-15T08:44:59;11.20;;;8.87;;
705;SDS011;21234;48.690;9.016;2023-02-15T08:47:26;13.40;;;8.67;;
705;SDS011;21234;48.690;9.016;2023-02-15T08:49:54;9.20;;;7.57;;
705;SDS011;21234;48.690;9.016;2023-02-15T08:52:21;9.47;;;8.00;;
705;SDS011;21234;48.690;9.016;2023-02-15T08:54:48;10.97;;;8.13;;
705;SDS011;21234;48.690;9.016;2023-02-15T08:57:14;9.50;;;7.30;;
705;SDS011;21234;48.690;9.016;2023-02-15T08:59:41;13.43;;;7.10;;
705;SDS011;21234;48.690;9.016;2023-02-15T09:02:09;14.00;;;7.80;;
705;SDS011;21234;48.690;9.016;2023-02-15T09:04:36;10.20;;;8.53;;
705;SDS011;21234;48.690;9.016;2023-02-15T09:07:04;9.67;;;7.77;;
705;SDS011;21234;48.690;9.016;2023-02-15T09:09:31;10.50;;;6.90;;
705;SDS011;21234;48.690;9.016;2023-02-15T09:11:57;13.60;;;7.70;;
705;SDS011;21234;48.690;9.016;2023-02-15T09:14:24;12.20;;;7.87;;
705;SDS011;21234;48.690;9.016;2023-02-15T09:16:52;15.47;;;8.43;;
705;SDS011;21234;48.690;9.016;2023-02-15T09:19:19;13.60;;;8.53;;
705;SDS011;21234;48.690;9.016;2023-02-15T09:21:47;12.27;;;8.57;;
705;SDS011;21234;48.690;9.016;2023-02-15T09:24:15;12.83;;;8.80;;
705;SDS011;21234;48.690;9.016;2023-02-15T09:26:45;10.90;;;8.27;;
705;SDS011;21234;48.690;9.016;2023-02-15T09:29:13;10.60;;;9.30;;
705;SDS011;21234;48.690;9.016;2023-02-15T09:31:41;13.03;;;9.10;;
705;SDS011;21234;48.690;9.016;2023-02-15T09:34:10;14.50;;;8.27;;
705;SDS011;21234;48.690;9.016;2023-02-15T09:36:37;13.03;;;7.00;;
705;SDS011;21234;48.690;9.016;2023-02-15T09:39:06;11.70;;;7.17;;
705;SDS011;21234;48.690;9.016;2023-02-15T09:41:47;8.30;;;6.17;;
705;SDS011;21234;48.690;9.016;2023-02-15T09:47:45;16.10;;;8.60;;
705;SDS011;21234;48.690;9.016;2023-02-15T09:50:24;12.63;;;8.37;;
705;SDS011;21234;48.690;9.016;2023-02-15T09:53:03;12.30;;;7.80;;
705;SDS011;21234;48.690;9.016;2023-02-15T09:55:46;13.33;;;6.80;;
705;SDS011;21234;48.690;9.016;2023-02-15T09:58:22;11.07;;;6.47;;
705;SDS011;21234;48.690;9.016;2023-02-15T10:00:58;9.80;;;7.43;;
705;SDS011;21234;48.690;9.016;2023-02-15T10:03:38;7.57;;;6.53;;
705;SDS011;21234;48.690;9.016;2023-02-15T10:06:28;10.10;;;7.13;;
705;SDS011;21234;48.690;9.016;2023-02-15T10:09:19;9.83;;;6.23;;
705;SDS011;21234;48.690;9.016;2023-02-15T10:12:00;10.33;;;6.97;;
705;SDS011;21234;48.690;9.016;2023-02-15T10:20:50;8.50;;;7.30;;
705;SDS011;21234;48.690;9.016;2023-02-15T10:23:28;13.90;;;9.03;;
705;SDS011;21234;48.690;9.016;2023-02-15T10:26:07;13.27;;;7.97;;
705;SDS011;21234;48.690;9.016;2023-02-15T10:28:42;7.53;;;6.63;;
705;SDS011;21234;48.690;9.016;2023-02-15T10:31:15;12.90;;;8.30;;
705;SDS011;21234;48.690;9.016;2023-02-15T10:33:49;14.13;;;7.57;;
705;SDS011;21234;48.690;9.016;2023-02-15T10:36:31;12.00;;;8.33;;
705;SDS011;21234;48.690;9.016;2023-02-15T10:39:06;8.07;;;6.60;;
705;SDS011;21234;48.690;9.016;2023-02-15T10:41:45;8.13;;;7.33;;
705;SDS011;21234;48.690;9.016;2023-02-15T10:44:23;8.80;;;7.40;;
705;SDS011;21234;48.690;9.016;2023-02-15T10:47:12;12.57;;;7.50;;
705;SDS011;21234;48.690;9.016;2023-02-15T10:50:00;10.23;;;7.20;;
705;SDS011;21234;48.690;9.016;2023-02-15T10:52:39;9.57;;;5.87;;
705;SDS011;21234;48.690;9.016;2023-02-15T10:55:21;8.93;;;5.97;;
705;SDS011;21234;48.690;9.016;2023-02-15T10:57:55;9.27;;;6.43;;
705;SDS011;21234;48.690;9.016;2023-02-15T11:00:31;11.53;;;7.40;;
705;SDS011;21234;48.690;9.016;2023-02-15T11:06:04;9.50;;;6.93;;
705;SDS011;21234;48.690;9.016;2023-02-15T11:08:36;11.00;;;7.33;;
705;SDS011;21234;48.690;9.016;2023-02-15T11:11:07;10.87;;;7.27;;
705;SDS011;21234;48.690;9.016;2023-02-15T11:13:38;10.60;;;7.80;;
705;SDS011;21234;48.690;9.016;2023-02-15T11:16:10;13.00;;;7.87;;
705;SDS011;21234;48.690;9.016;2023-02-15T11:18:43;11.90;;;7.77;;
705;SDS011;21234;48.690;9.016;2023-02-15T11:21:17;11.10;;;7.47;;
705;SDS011;21234;48.690;9.016;2023-02-15T11:23:48;10.60;;;8.30;;
705;SDS011;21234;48.690;9.016;2023-02-15T11:26:16;11.43;;;7.20;;
705;SDS011;21234;48.690;9.016;2023-02-15T11:28:49;10.30;;;7.63;;
705;SDS011;21234;48.690;9.016;2023-02-15T11:31:21;13.53;;;8.50;;
705;SDS011;21234;48.690;9.016;2023-02-15T11:33:52;9.13;;;7.30;;
705;SDS011;21234;48.690;9.016;2023-02-15T11:36:24;11.63;;;7.47;;
705;SDS011;21234;48.690;9.016;2023-02-15T11:38:56;8.67;;;6.50;;
705;SDS011;21234;48.690;9.016;2023-02-15T11:41:28;9.93;;;7.60;;
705;SDS011;21234;48.690;9.016;2023-02-15T11:43:59;8.43;;;6.57;;
705;SDS011;21234;48.690;9.016;2023-02-15T11:46:32;9.43;;;7.23;;
705;SDS011;21234;48.690;9.016;2023-02-15T11:49:00;9.23;;;7.23;;
705;SDS011;21234;48.690;9.016;2023-02-15T11:51:28;8.40;;;6.57;;
705;SDS011;21234;48.690;9.016;2023-02-15T11:53:55;12.67;;;8.10;;
705;SDS011;21234;48.690;9.016;2023-02-15T11:56:23;11.90;;;8.40;;
705;SDS011;21234;48.690;9.016;2023-02-15T11:58:52;11.37;;;7.63;;
705;SDS011;21234;48.690;9.016;2023-02-15T12:01:24;8.67;;;6.80;;
705;SDS011;21234;48.690;9.016;2023-02-15T12:03:56;9.27;;;7.70;;
705;SDS011;21234;48.690;9.016;2023-02-15T12:06:29;10.53;;;7.60;;
705;SDS011;21234;48.690;9.016;2023-02-15T12:09:01;6.97;;;6.23;;
705;SDS011;21234;48.690;9.016;2023-02-15T12:11:34;9.10;;;5.70;;
705;SDS011;21234;48.690;9.016;2023-02-15T12:14:03;8.50;;;6.03;;
705;SDS011;21234;48.690;9.016;2023-02-15T12:16:32;8.73;;;5.77;;
705;SDS011;21234;48.690;9.016;2023-02-15T12:19:09;8.47;;;5.77;;
705;SDS011;21234;48.690;9.016;2023-02-15T12:21:50;10.20;;;6.30;;
705;SDS011;21234;48.690;9.016;2023-02-15T12:24:19;9.83;;;6.73;;
705;SDS011;21234;48.690;9.016;2023-02-15T12:26:55;10.17;;;6.33;;
705;SDS011;21234;48.690;9.016;2023-02-15T12:29:25;6.53;;;5.33;;
705;SDS011;21234;48.690;9.016;2023-02-15T12:31:55;12.33;;;5.20;;
705;SDS011;21234;48.690;9.016;2023-02-15T12:34:24;6.73;;;5.27;;
705;SDS011;21234;48.690;9.016;2023-02-15T12:36:54;5.83;;;5.23;;
705;SDS011;21234;48.690;9.016;2023-02-15T12:39:24;7.17;;;5.53;;
705;SDS011;21234;48.690;9.016;2023-02-15T12:41:59;5.43;;;4.90;;
705;SDS011;21234;48.690;9.016;2023-02-15T12:44:29;6.63;;;5.53;;
705;SDS011;21234;48.690;9.016;2023-02-15T12:46:58;6.20;;;5.27;;
705;SDS011;21234;48.690;9.016;2023-02-15T12:49:27;7.40;;;5.20;;
705;SDS011;21234;48.690;9.016;2023-02-15T12:51:57;9.03;;;4.83;;
705;SDS011;21234;48.690;9.016;2023-02-15T12:54:37;8.43;;;4.77;;
705;SDS011;21234;48.690;9.016;2023-02-15T12:57:18;7.70;;;5.70;;
705;SDS011;21234;48.690;9.016;2023-02-15T12:59:50;8.27;;;5.00;;
705;SDS011;21234;48.690;9.016;2023-02-15T13:02:20;5.77;;;4.83;;
705;SDS011;21234;48.690;9.016;2023-02-15T13:04:49;9.27;;;5.40;;
705;SDS011;21234;48.690;9.016;2023-02-15T13:07:18;6.83;;;5.43;;
705;SDS011;21234;48.690;9.016;2023-02-15T13:09:45;8.00;;;6.03;;
705;SDS011;21234;48.690;9.016;2023-02-15T13:12:16;7.47;;;5.20;;
705;SDS011;21234;48.690;9.016;2023-02-15T13:14:46;8.13;;;4.83;;
705;SDS011;21234;48.690;9.016;2023-02-15T13:17:16;7.43;;;5.10;;
705;SDS011;21234;48.690;9.016;2023-02-15T13:19:47;7.93;;;5.00;;
705;SDS011;21234;48.690;9.016;2023-02-15T13:22:18;7.97;;;5.60;;
705;SDS011;21234;48.690;9.016;2023-02-15T13:24:48;9.40;;;6.10;;
705;SDS011;21234;48.690;9.016;2023-02-15T13:27:18;10.43;;;6.60;;
705;SDS011;21234;48.690;9.016;2023-02-15T13:29:48;6.80;;;4.40;;
705;SDS011;21234;48.690;9.016;2023-02-15T13:32:22;5.67;;;5.10;;
705;SDS011;21234;48.690;9.016;2023-02-15T13:34:52;7.27;;;5.37;;
705;SDS011;21234;48.690;9.016;2023-02-15T13:37:33;5.90;;;4.70;;
705;SDS011;21234;48.690;9.016;2023-02-15T13:40:12;5.80;;;4.00;;
705;SDS011;21234;48.690;9.016;2023-02-15T13:42:46;5.13;;;4.50;;
705;SDS011;21234;48.690;9.016;2023-02-15T13:45:24;7.67;;;4.97;;
705;SDS011;21234;48.690;9.016;2023-02-15T13:47:59;6.70;;;4.80;;
705;SDS011;21234;48.690;9.016;2023-02-15T13:50:36;7.40;;;5.33;;
705;SDS011;21234;48.690;9.016;2023-02-15T13:53:23;6.70;;;5.00;;
705;SDS011;21234;48.690;9.016;2023-02-15T13:56:02;4.90;;;4.40;;
705;SDS011;21234;48.690;9.016;2023-02-15T13:58:42;7.83;;;6.23;;
705;SDS011;21234;48.690;9.016;2023-02-15T14:01:36;6.80;;;5.73;;
705;SDS011;21234;48.690;9.016;2023-02-15T14:07:21;7.97;;;6.77;;
705;SDS011;21234;48.690;9.016;2023-02-15T14:09:59;8.83;;;5.93;;
705;SDS011;21234;48.690;9.016;2023-02-15T14:12:48;7.87;;;6.90;;
705;SDS011;21234;48.690;9.016;2023-02-15T14:15:30;9.03;;;6.23;;
705;SDS011;21234;48.690;9.016;2023-02-15T14:18:08;8.20;;;6.87;;
705;SDS011;21234;48.690;9.016;2023-02-15T14:20:45;8.47;;;7.67;;
705;SDS011;21234;48.690;9.016;2023-02-15T14:23:23;8.70;;;7.67;;
705;SDS011;21234;48.690;9.016;2023-02-15T14:26:03;12.77;;;7.77;;
705;SDS011;21234;48.690;9.016;2023-02-15T14:28:37;8.53;;;7.00;;
705;SDS011;21234;48.690;9.016;2023-02-15T14:31:12;9.40;;;7.63;;
705;SDS011;21234;48.690;9.016;2023-02-15T14:33:43;9.17;;;7.57;;
705;SDS011;21234;48.690;9.016;2023-02-15T14:36:16;8.23;;;6.57;;
705;SDS011;21234;48.690;9.016;2023-02-15T14:38:51;9.50;;;7.93;;
705;SDS011;21234;48.690;9.016;2023-02-15T14:41:28;8.50;;;6.70;;
705;SDS011;21234;48.690;9.016;2023-02-15T14:44:05;7.13;;;6.47;;
705;SDS011;21234;48.690;9.016;2023-02-15T14:46:41;10.83;;;6.87;;
705;SDS011;21234;48.690;9.016;2023-02-15T14:49:13;13.73;;;8.00;;
705;SDS011;21234;48.690;9.016;2023-02-15T14:52:02;8.47;;;7.37;;
705;SDS011;21234;48.690;9.016;2023-02-15T14:57:28;9.70;;;8.60;;
705;SDS011;21234;48.690;9.016;2023-02-15T14:59:58;10.73;;;9.50;;
705;SDS011;21234;48.690;9.016;2023-02-15T15:02:29;10.60;;;8.87;;
705;SDS011;21234;48.690;9.016;2023-02-15T15:05:10;12.67;;;10.07;;
705;SDS011;21234;48.690;9.016;2023-02-15T15:07:44;12.70;;;11.27;;
705;SDS011;21234;48.690;9.016;2023-02-15T15:22:23;15.97;;;11.23;;
705;SDS011;21234;48.690;9.016;2023-02-15T15:24:52;13.23;;;10.93;;
705;SDS011;21234;48.690;9.016;2023-02-15T15:27:39;13.20;;;10.07;;
705;SDS011;21234;48.690;9.016;2023-02-15T15:42:38;13.80;;;9.90;;
705;SDS011;21234;48.690;9.016;2023-02-15T15:45:22;12.93;;;8.67;;
705;SDS011;21234;48.690;9.016;2023-02-15T15:50:59;15.03;;;8.30;;
705;SDS011;21234;48.690;9.016;2023-02-15T15:53:31;10.07;;;8.70;;
705;SDS011;21234;48.690;9.016;2023-02-15T15:56:05;11.50;;;8.23;;
705;SDS011;21234;48.690;9.016;2023-02-15T15:58:35;12.03;;;8.23;;
705;SDS011;21234;48.690;9.016;2023-02-15T16:01:03;11.97;;;7.83;;
705;SDS011;21234;48.690;9.016;2023-02-15T16:03:34;8.33;;;7.00;;
705;SDS011;21234;48.690;9.016;2023-02-15T16:06:01;11.20;;;10.07;;
705;SDS011;21234;48.690;9.016;2023-02-15T16:08:28;10.57;;;8.53;;
705;SDS011;21234;48.690;9.016;2023-02-15T16:10:58;9.20;;;7.80;;